Time;durP1;ratioP1;P1;durP2;ratioP2;P2;SDS_P1;SDS_P2;PMS_P1;PMS_P2;Temp;Humidity;BMP_temperature;BMP_pressure;BME280_temperature;BME280_humidity;BME280_pressure;Samples;Min_cycle;Max_cycle;Signal;HPM_P1;HPM_P2
2023/04/22 00:00:05;;;;;;;319.20;133.10;;;;;;;14.00;97.95;99309.69;346130;28;881;-76
2023/04/22 00:00:16;;;;;;;319.23;130.90;;;;;;;13.99;97.82;99310.63;346228;28;833;-76
2023/04/22 00:00:27;;;;;;;317.13;129.32;;;;;;;14.01;98.00;99316.66;344892;28;907;-76
2023/04/22 00:00:38;;;;;;;313.83;130.77;;;;;;;14.04;98.19;99319.09;342918;28;898;-76
2023/04/22 00:00:48;;;;;;;314.73;132.48;;;;;;;14.04;97.87;99318.25;343457;28;1296;-76
2023/04/22 00:01:00;;;;;;;313.93;132.03;;;;;;;14.02;98.01;99313.09;345996;28;1268;-76
2023/04/22 00:01:11;;;;;;;317.25;134.27;;;;;;;14.02;97.98;99312.25;343507;28;998;-76
2023/04/22 00:01:23;;;;;;;316.52;133.90;;;;;;;14.03;97.85;99309.53;344347;28;1240;-76
2023/04/22 00:01:33;;;;;;;315.52;131.25;;;;;;;14.06;97.85;99317.22;343352;28;1540;-76
2023/04/22 00:01:44;;;;;;;310.55;127.50;;;;;;;14.06;97.99;99317.22;343342;28;832;-76
2023/04/22 00:01:55;;;;;;;312.10;128.90;;;;;;;14.08;98.02;99325.03;341691;28;850;-76
2023/04/22 00:02:05;;;;;;;312.08;130.00;;;;;;;14.07;97.87;99315.44;342170;28;810;-76
2023/04/22 00:02:18;;;;;;;317.73;134.60;;;;;;;14.08;97.66;99323.25;342135;28;885;-76
2023/04/22 00:02:28;;;;;;;315.90;132.50;;;;;;;14.08;97.71;99315.34;340733;29;1408;-76
2023/04/22 00:02:39;;;;;;;314.95;130.68;;;;;;;14.04;97.46;99319.09;343353;28;1050;-76
2023/04/22 00:02:50;;;;;;;310.40;128.52;;;;;;;14.02;98.11;99315.72;339167;29;1388;-76
2023/04/22 00:03:02;;;;;;;316.40;131.30;;;;;;;14.02;98.04;99315.72;340485;29;978;-76
2023/04/22 00:03:13;;;;;;;317.70;131.20;;;;;;;14.03;98.00;99317.41;339420;29;889;-76
2023/04/22 00:03:23;;;;;;;319.00;131.53;;;;;;;13.99;97.79;99311.50;339308;29;1318;-76
2023/04/22 00:03:33;;;;;;;314.77;131.43;;;;;;;14.03;97.75;99313.94;335346;29;1592;-76
2023/04/22 00:03:44;;;;;;;315.57;131.97;;;;;;;14.01;97.79;99316.66;332985;29;1201;-76
2023/04/22 00:03:54;;;;;;;313.65;130.90;;;;;;;14.04;97.92;99319.09;336248;29;1912;-76
2023/04/22 00:04:06;;;;;;;317.00;132.70;;;;;;;14.05;97.55;99320.81;336552;29;1067;-76
2023/04/22 00:04:16;;;;;;;315.80;132.48;;;;;;;14.05;97.67;99319.97;338019;29;1433;-76
2023/04/22 00:04:27;;;;;;;322.05;134.07;;;;;;;14.06;97.89;99322.50;334374;29;831;-76
2023/04/22 00:04:37;;;;;;;319.40;134.00;;;;;;;14.07;98.19;99318.94;333882;29;1043;-76
2023/04/22 00:04:48;;;;;;;317.67;133.33;;;;;;;14.07;97.91;99318.09;332880;29;1478;-76
2023/04/22 00:05:00;;;;;;;312.70;131.32;;;;;;;14.07;97.88;99316.28;330517;29;1328;-76
2023/04/22 00:05:12;;;;;;;310.77;130.35;;;;;;;14.08;97.63;99312.72;329725;29;1803;-76
2023/04/22 00:05:22;;;;;;;310.25;132.93;;;;;;;14.07;97.48;99316.28;328096;29;1803;-76
2023/04/22 00:05:33;;;;;;;310.33;133.90;;;;;;;14.10;97.50;99318.75;326491;30;2146;-76
2023/04/22 00:05:43;;;;;;;309.88;133.13;;;;;;;14.09;97.83;99317.06;328179;30;1038;-76
2023/04/22 00:05:54;;;;;;;314.53;133.33;;;;;;;14.11;97.71;99324.84;329549;29;2217;-76
2023/04/22 00:06:05;;;;;;;314.13;131.95;;;;;;;14.10;97.88;99321.38;328379;29;1836;-76
2023/04/22 00:06:16;;;;;;;317.38;134.32;;;;;;;14.09;97.81;99317.06;329331;30;1006;-76
2023/04/22 00:06:26;;;;;;;317.05;132.35;;;;;;;14.06;97.66;99319.88;330288;29;926;-76
2023/04/22 00:06:37;;;;;;;317.70;133.60;;;;;;;14.05;97.86;99315.53;328867;29;1405;-76
2023/04/22 00:06:47;;;;;;;317.10;133.17;;;;;;;14.04;97.88;99313.84;327727;29;1961;-76
2023/04/22 00:06:57;;;;;;;319.53;137.33;;;;;;;14.05;97.91;99320.81;325611;30;1450;-76
2023/04/22 00:07:08;;;;;;;318.77;135.73;;;;;;;14.04;97.81;99319.09;325174;30;1947;-76
2023/04/22 00:07:18;;;;;;;317.03;133.77;;;;;;;14.03;97.95;99317.41;326464;29;2443;-76
2023/04/22 00:07:29;;;;;;;314.52;129.80;;;;;;;14.03;98.04;99317.41;329160;30;1202;-76
2023/04/22 00:07:39;;;;;;;316.83;132.17;;;;;;;14.03;97.97;99316.56;326940;30;2564;-76
2023/04/22 00:07:50;;;;;;;316.48;131.77;;;;;;;14.04;97.94;99319.09;328608;29;2885;-76
2023/04/22 00:08:00;;;;;;;320.63;134.03;;;;;;;14.05;98.06;99314.69;328010;30;982;-76
2023/04/22 00:08:11;;;;;;;318.67;133.23;;;;;;;14.06;98.05;99317.22;327873;30;2763;-76
2023/04/22 00:08:21;;;;;;;319.70;134.33;;;;;;;14.07;97.94;99318.94;325367;30;1690;-78
2023/04/22 00:08:33;;;;;;;315.15;133.35;;;;;;;14.03;97.33;99313.94;326659;30;1401;-77
2023/04/22 00:08:43;;;;;;;316.00;135.30;;;;;;;13.99;97.51;99313.28;326511;30;1070;-77
2023/04/22 00:08:54;;;;;;;314.97;136.17;;;;;;;13.97;97.61;99318.63;329471;29;2068;-77
2023/04/22 00:09:04;;;;;;;318.95;133.82;;;;;;;13.94;97.67;99313.53;326426;30;2556;-76
2023/04/22 00:09:15;;;;;;;319.10;134.43;;;;;;;13.94;97.69;99320.59;325634;30;1317;-76
2023/04/22 00:09:25;;;;;;;318.88;133.77;;;;;;;13.91;97.82;99313.72;328196;30;2859;-76
2023/04/22 00:09:35;;;;;;;312.50;131.77;;;;;;;13.94;97.99;99317.97;325067;30;3165;-76
2023/04/22 00:09:46;;;;;;;312.93;131.67;;;;;;;13.94;97.94;99315.31;322707;30;1371;-76
2023/04/22 00:09:56;;;;;;;312.60;133.68;;;;;;;13.95;97.73;99311.75;325058;30;3311;-76
2023/04/22 00:10:07;;;;;;;318.77;138.20;;;;;;;13.94;97.92;99317.97;324600;30;3204;-76
2023/04/22 00:10:18;;;;;;;316.95;135.60;;;;;;;13.92;97.66;99314.56;322922;30;3431;-76
2023/04/22 00:10:28;;;;;;;316.60;133.87;;;;;;;13.92;97.95;99309.31;322038;30;1220;-76
2023/04/22 00:10:39;;;;;;;310.47;130.97;;;;;;;13.91;97.78;99308.47;321943;30;2137;-76
2023/04/22 00:10:49;;;;;;;312.30;131.77;;;;;;;13.93;97.89;99317.13;320061;30;2144;-76
2023/04/22 00:11:00;;;;;;;313.33;133.17;;;;;;;13.94;97.84;99312.69;320912;30;1366;-76
2023/04/22 00:11:10;;;;;;;316.88;133.15;;;;;;;13.94;97.92;99317.97;319239;30;3055;-76
2023/04/22 00:11:21;;;;;;;322.80;133.97;;;;;;;13.91;98.11;99319.00;317289;30;3536;-76
2023/04/22 00:11:31;;;;;;;322.73;131.13;;;;;;;13.92;98.23;99320.69;317974;30;3562;-76
2023/04/22 00:11:42;;;;;;;317.85;131.63;;;;;;;13.92;98.27;99319.84;316281;31;1239;-76
2023/04/22 00:11:52;;;;;;;313.43;130.73;;;;;;;13.93;98.01;99314.47;313240;31;4354;-76
2023/04/22 00:12:03;;;;;;;312.23;133.17;;;;;;;13.94;98.18;99320.59;310358;31;4363;-76
2023/04/22 00:12:13;;;;;;;314.80;134.18;;;;;;;13.95;97.77;99315.25;310762;31;781;-76
2023/04/22 00:12:23;;;;;;;313.50;132.80;;;;;;;13.94;97.81;99313.53;308190;31;4293;-76
2023/04/22 00:12:34;;;;;;;315.27;133.43;;;;;;;13.98;97.96;99314.22;305406;32;4036;-76
2023/04/22 00:12:44;;;;;;;310.65;131.73;;;;;;;13.98;97.79;99320.31;305349;32;852;-76
2023/04/22 00:12:55;;;;;;;314.33;134.87;;;;;;;13.99;97.96;99310.63;304972;32;2815;-76
2023/04/22 00:13:05;;;;;;;315.07;136.53;;;;;;;13.99;97.97;99310.63;305165;32;3136;-76
2023/04/22 00:13:15;;;;;;;320.45;137.82;;;;;;;13.99;97.64;99313.28;305334;32;848;-76
2023/04/22 00:13:26;;;;;;;320.00;135.13;;;;;;;14.01;97.59;99307.91;306348;32;3767;-76
2023/04/22 00:13:36;;;;;;;319.23;133.90;;;;;;;14.03;97.63;99313.94;304281;32;4754;-76
2023/04/22 00:13:47;;;;;;;314.60;131.57;;;;;;;14.02;97.56;99313.09;303188;32;5018;-76
2023/04/22 00:13:57;;;;;;;317.17;134.52;;;;;;;14.03;97.68;99314.78;302965;32;1455;-76
2023/04/22 00:14:07;;;;;;;320.70;136.63;;;;;;;14.03;97.57;99306.91;302793;32;6232;-76
2023/04/22 00:14:18;;;;;;;320.73;137.77;;;;;;;14.04;97.57;99313.84;301636;32;6074;-76
2023/04/22 00:14:28;;;;;;;321.42;134.63;;;;;;;14.05;97.50;99312.06;305265;32;1237;-76
2023/04/22 00:14:39;;;;;;;319.13;132.73;;;;;;;14.02;97.55;99315.72;305497;32;6113;-76
2023/04/22 00:14:49;;;;;;;316.27;132.30;;;;;;;13.98;97.44;99303.69;300892;32;5804;-76
2023/04/22 00:14:59;;;;;;;316.13;135.30;;;;;;;14.03;97.42;99312.16;298882;33;806;-76
2023/04/22 00:15:10;;;;;;;312.90;133.88;;;;;;;14.04;97.40;99313.00;304817;32;4002;-76
2023/04/22 00:15:20;;;;;;;318.53;135.63;;;;;;;14.02;97.39;99304.34;303109;32;4719;-76
2023/04/22 00:15:31;;;;;;;317.42;133.73;;;;;;;14.08;97.60;99309.25;303263;32;865;-76
2023/04/22 00:15:42;;;;;;;319.45;134.52;;;;;;;14.07;97.50;99308.41;301205;32;821;-76
2023/04/22 00:15:52;;;;;;;314.57;132.43;;;;;;;14.07;97.24;99305.78;299049;32;6427;-76
2023/04/22 00:16:03;;;;;;;315.70;133.63;;;;;;;14.08;97.84;99307.47;296884;32;7396;-76
2023/04/22 00:16:13;;;;;;;316.40;135.60;;;;;;;14.11;97.69;99309.91;296838;33;1286;-76
2023/04/22 00:16:25;;;;;;;317.35;136.38;;;;;;;14.13;97.57;99318.56;289244;33;9067;-76
2023/04/22 00:16:35;;;;;;;321.80;136.10;;;;;;;14.11;98.00;99315.19;290832;33;8913;-76
2023/04/22 00:16:45;;;;;;;320.93;133.97;;;;;;;14.08;97.45;99315.34;295995;33;1427;-76
2023/04/22 00:16:56;;;;;;;318.00;131.30;;;;;;;14.10;97.38;99313.47;287950;33;8147;-76
2023/04/22 00:17:06;;;;;;;315.23;131.93;;;;;;;14.09;97.73;99314.41;289137;33;7883;-76
2023/04/22 00:17:17;;;;;;;313.77;133.25;;;;;;;14.07;97.56;99313.66;290392;33;5125;-76
2023/04/22 00:17:27;;;;;;;312.20;135.57;;;;;;;14.08;97.69;99310.09;291056;34;1576;-76
2023/04/22 00:19:15;;;;;;;308.28;126.08;;;;;;;14.12;97.38;99311.59;2495722;27;20501;-75
2023/04/22 00:19:25;;;;;;;312.27;132.13;;;;;;;14.12;97.62;99311.59;354268;27;1333;-75
2023/04/22 00:19:36;;;;;;;315.92;133.60;;;;;;;14.13;97.42;99310.66;354456;27;828;-77
2023/04/22 00:19:46;;;;;;;319.13;133.87;;;;;;;14.10;97.32;99308.22;353187;28;780;-76
2023/04/22 00:19:56;;;;;;;321.05;134.18;;;;;;;14.11;97.45;99304.66;350423;28;867;-76
2023/04/22 00:20:09;;;;;;;316.73;134.37;;;;;;;14.10;97.38;99302.97;350331;28;1342;-76
2023/04/22 00:20:23;;;;;;;315.65;134.40;;;;;;;14.12;97.44;99311.59;348617;28;801;-76
2023/04/22 00:20:35;;;;;;;310.38;130.75;;;;;;;14.14;97.45;99308.88;348816;28;809;-76
2023/04/22 00:20:45;;;;;;;307.63;128.13;;;;;;;14.13;97.45;99308.03;347383;28;864;-76
2023/04/22 00:20:56;;;;;;;308.90;131.00;;;;;;;14.14;97.35;99307.09;346001;28;1515;-76
2023/04/22 00:21:06;;;;;;;311.77;134.77;;;;;;;14.15;97.40;99316.69;347738;28;1323;-76
2023/04/22 00:21:17;;;;;;;315.60;136.43;;;;;;;14.15;97.29;99303.53;350396;28;808;-76
2023/04/22 00:21:27;;;;;;;315.70;135.05;;;;;;;14.15;97.24;99311.44;347446;28;1327;-76
2023/04/22 00:21:37;;;;;;;314.77;133.50;;;;;;;14.15;97.05;99308.78;345318;28;955;-76
2023/04/22 00:21:48;;;;;;;315.60;133.90;;;;;;;14.15;97.32;99311.44;347273;28;1051;-76
2023/04/22 00:21:58;;;;;;;317.33;136.07;;;;;;;14.16;97.13;99317.53;347269;28;781;-76
2023/04/22 00:22:10;;;;;;;315.08;135.18;;;;;;;14.14;96.72;99309.72;346008;28;1205;-76
2023/04/22 00:22:20;;;;;;;319.80;135.63;;;;;;;14.14;96.72;99307.09;347636;28;919;-76
2023/04/22 00:22:30;;;;;;;319.23;134.57;;;;;;;14.15;97.03;99310.56;347558;28;1192;-76
2023/04/22 00:22:41;;;;;;;319.30;134.98;;;;;;;14.15;97.18;99314.06;348193;28;904;-76
2023/04/22 00:22:51;;;;;;;318.60;135.57;;;;;;;14.15;96.81;99306.16;348195;28;960;-76
2023/04/22 00:23:01;;;;;;;319.40;136.40;;;;;;;14.14;96.61;99303.63;345815;28;1337;-76
2023/04/22 00:23:12;;;;;;;319.17;138.90;;;;;;;14.17;96.46;99319.22;343560;28;1052;-78
2023/04/22 00:23:22;;;;;;;321.55;139.18;;;;;;;14.15;96.72;99311.44;344148;28;863;-77
2023/04/22 00:23:33;;;;;;;327.13;138.73;;;;;;;14.15;96.63;99310.56;344926;28;899;-77
2023/04/22 00:23:44;;;;;;;323.57;136.37;;;;;;;14.15;96.67;99307.94;344674;28;1284;-77
2023/04/22 00:23:54;;;;;;;318.90;135.42;;;;;;;14.16;96.69;99307.84;343215;28;937;-77
2023/04/22 00:24:05;;;;;;;312.43;135.03;;;;;;;14.16;96.58;99307.84;343285;28;813;-77
2023/04/22 00:24:15;;;;;;;313.27;134.25;;;;;;;14.16;96.72;99307.00;341939;28;1393;-77
2023/04/22 00:24:26;;;;;;;316.03;135.50;;;;;;;14.16;96.38;99310.47;339496;29;1197;-77
2023/04/22 00:24:36;;;;;;;317.73;136.27;;;;;;;14.16;96.68;99313.13;342922;28;995;-77
2023/04/22 00:24:46;;;;;;;317.75;136.57;;;;;;;14.15;96.84;99308.78;346190;28;920;-77
2023/04/22 00:24:57;;;;;;;317.07;137.83;;;;;;;14.16;96.60;99309.63;346964;28;1085;-77
2023/04/22 00:25:07;;;;;;;319.70;139.38;;;;;;;14.17;96.34;99312.19;343334;28;1200;-77
2023/04/22 00:25:18;;;;;;;318.43;138.63;;;;;;;14.17;96.53;99309.53;342101;28;1153;-76
2023/04/22 00:25:28;;;;;;;321.30;139.05;;;;;;;14.18;96.43;99307.75;339395;29;1369;-76
2023/04/22 00:25:39;;;;;;;321.10;138.87;;;;;;;14.19;96.76;99312.94;343426;28;1226;-76
2023/04/22 00:25:49;;;;;;;320.27;137.00;;;;;;;14.19;96.70;99302.41;343408;28;1206;-76
2023/04/22 00:26:00;;;;;;;316.17;134.07;;;;;;;14.17;96.51;99304.28;343457;28;940;-76
2023/04/22 00:26:10;;;;;;;314.57;134.27;;;;;;;14.17;96.33;99309.53;340292;29;1214;-76
2023/04/22 00:26:21;;;;;;;313.60;134.70;;;;;;;14.14;96.79;99304.47;340699;29;1262;-76
2023/04/22 00:26:31;;;;;;;316.40;137.87;;;;;;;14.15;96.77;99306.16;343573;28;774;-76
2023/04/22 00:26:42;;;;;;;316.47;138.17;;;;;;;14.17;96.70;99312.19;342087;28;1202;-76
2023/04/22 00:26:52;;;;;;;317.05;139.75;;;;;;;14.17;96.92;99309.53;342506;28;978;-76
2023/04/22 00:27:03;;;;;;;314.37;138.33;;;;;;;14.14;96.89;99309.72;340753;29;1297;-76
2023/04/22 00:27:13;;;;;;;316.13;138.70;;;;;;;14.13;96.71;99313.31;340199;28;1370;-76
2023/04/22 00:27:24;;;;;;;317.02;137.52;;;;;;;14.11;97.15;99304.66;341260;28;1551;-76
2023/04/22 00:27:34;;;;;;;319.87;138.77;;;;;;;14.09;97.09;99301.25;338179;29;1315;-76
2023/04/22 00:27:44;;;;;;;320.35;138.18;;;;;;;14.05;97.05;99294.50;342163;28;912;-76
2023/04/22 00:27:55;;;;;;;322.43;140.30;;;;;;;14.11;97.31;99304.66;340640;28;1728;-76
2023/04/22 00:28:05;;;;;;;322.87;138.70;;;;;;;14.11;97.55;99304.66;337850;29;1971;-76
2023/04/22 00:28:16;;;;;;;320.83;138.95;;;;;;;14.12;97.13;99308.13;337975;29;1091;-76
2023/04/22 00:28:26;;;;;;;320.07;135.13;;;;;;;14.10;97.24;99300.31;340403;29;826;-76
2023/04/22 00:28:37;;;;;;;317.10;135.85;;;;;;;14.12;97.20;99305.50;340776;29;903;-76
2023/04/22 00:28:47;;;;;;;317.17;136.47;;;;;;;14.10;97.30;99300.31;339500;29;819;-76
2023/04/22 00:28:57;;;;;;;317.38;138.75;;;;;;;14.10;97.66;99304.75;338257;29;1075;-76
2023/04/22 00:29:08;;;;;;;316.37;138.67;;;;;;;14.08;97.75;99299.56;336213;29;1417;-76
2023/04/22 00:29:18;;;;;;;317.38;137.65;;;;;;;14.09;97.51;99301.25;336442;29;1756;-76
2023/04/22 00:29:29;;;;;;;317.07;136.63;;;;;;;14.09;97.92;99309.16;330473;29;926;-76
2023/04/22 00:29:39;;;;;;;320.65;137.20;;;;;;;14.08;97.58;99299.56;330549;29;1815;-76
2023/04/22 00:29:50;;;;;;;321.67;138.27;;;;;;;14.07;97.69;99304.94;329221;29;2085;-76
2023/04/22 00:30:00;;;;;;;322.73;139.57;;;;;;;14.08;97.76;99302.19;329322;30;788;-76
2023/04/22 00:30:11;;;;;;;317.87;136.80;;;;;;;14.10;97.62;99296.84;328480;29;2290;-76
2023/04/22 00:30:21;;;;;;;316.83;135.38;;;;;;;14.09;97.63;99303.91;325557;30;1658;-76
2023/04/22 00:30:32;;;;;;;313.93;134.50;;;;;;;14.10;97.56;99302.97;325717;30;833;-76
2023/04/22 00:30:42;;;;;;;316.20;135.98;;;;;;;14.10;97.76;99305.59;326602;30;1148;-76
2023/04/22 00:30:52;;;;;;;319.53;137.23;;;;;;;14.11;97.50;99303.81;329091;30;1325;-76
2023/04/22 00:31:03;;;;;;;322.27;139.77;;;;;;;14.12;97.26;99305.50;326830;30;1362;-76
2023/04/22 00:31:13;;;;;;;319.67;138.83;;;;;;;14.13;97.75;99307.19;323325;30;1292;-76
2023/04/22 00:31:24;;;;;;;317.35;137.88;;;;;;;14.13;97.35;99301.94;323237;30;2339;-76
2023/04/22 00:31:34;;;;;;;316.50;137.07;;;;;;;14.12;97.39;99303.72;322165;30;2410;-76
2023/04/22 00:31:45;;;;;;;319.58;137.07;;;;;;;14.13;97.32;99304.56;324291;30;1283;-76
2023/04/22 00:31:55;;;;;;;319.83;137.90;;;;;;;14.15;97.49;99305.31;321660;30;2548;-76
2023/04/22 00:32:05;;;;;;;319.40;136.25;;;;;;;14.12;97.61;99303.72;321794;30;2503;-76
2023/04/22 00:32:16;;;;;;;317.47;136.93;;;;;;;14.13;97.36;99305.41;320978;30;976;-76
2023/04/22 00:32:26;;;;;;;316.83;137.67;;;;;;;14.14;97.58;99309.72;322532;30;2737;-76
2023/04/22 00:32:37;;;;;;;316.15;137.70;;;;;;;14.16;97.38;99301.75;325413;30;1880;-76
2023/04/22 00:32:47;;;;;;;318.60;138.63;;;;;;;14.16;97.71;99305.22;325559;30;872;-76
2023/04/22 00:32:58;;;;;;;319.60;139.48;;;;;;;14.15;97.66;99300.91;324200;30;1396;-76
2023/04/22 00:33:08;;;;;;;320.50;138.80;;;;;;;14.16;97.47;99301.75;325972;29;2077;-76
2023/04/22 00:33:19;;;;;;;314.87;135.47;;;;;;;14.14;97.43;99299.19;322778;30;2463;-76
2023/04/22 00:33:30;;;;;;;314.13;134.23;;;;;;;14.15;97.44;99300.06;320764;30;877;-76
2023/04/22 00:33:40;;;;;;;315.67;136.45;;;;;;;14.15;97.55;99305.31;323964;30;3030;-76
2023/04/22 00:33:51;;;;;;;319.48;139.63;;;;;;;14.12;97.57;99306.34;323365;30;3385;-76
2023/04/22 00:34:01;;;;;;;323.13;141.70;;;;;;;14.14;97.60;99304.47;320780;30;1189;-76
2023/04/22 00:34:11;;;;;;;322.58;141.77;;;;;;;14.15;97.62;99306.16;321188;30;3920;-76
2023/04/22 00:34:22;;;;;;;318.27;138.60;;;;;;;14.16;97.62;99304.38;320665;30;3413;-76
2023/04/22 00:34:32;;;;;;;319.08;138.00;;;;;;;14.16;97.70;99305.22;320702;30;897;-76
2023/04/22 00:34:42;;;;;;;322.13;136.57;;;;;;;14.14;97.44;99303.63;322765;30;3281;-76
2023/04/22 00:34:53;;;;;;;324.20;136.57;;;;;;;14.13;98.07;99302.78;319809;30;2408;-76
2023/04/22 00:35:04;;;;;;;329.85;138.63;;;;;;;14.15;97.66;99307.94;314653;31;2247;-76
2023/04/22 00:35:14;;;;;;;322.73;136.23;;;;;;;14.14;97.94;99307.09;316236;31;1253;-76
2023/04/22 00:35:25;;;;;;;320.10;136.17;;;;;;;14.13;97.85;99300.13;312814;31;2857;-76
2023/04/22 00:35:35;;;;;;;313.35;134.50;;;;;;;14.05;98.29;99302.38;311647;31;3572;-76
2023/04/22 00:35:45;;;;;;;314.23;135.93;;;;;;;14.05;98.89;99305.00;312867;31;815;-76
2023/04/22 00:35:56;;;;;;;319.17;138.05;;;;;;;14.06;98.58;99309.34;313076;31;4561;-76
2023/04/22 00:36:06;;;;;;;321.80;141.33;;;;;;;14.03;99.17;99306.91;313307;31;4541;-76
2023/04/22 00:36:17;;;;;;;321.17;141.30;;;;;;;14.01;99.13;99297.41;316382;31;1053;-76
2023/04/22 00:36:27;;;;;;;317.37;137.90;;;;;;;14.02;99.08;99299.94;315544;31;4661;-76
2023/04/22 00:36:38;;;;;;;317.85;136.95;;;;;;;14.02;99.40;99302.56;313154;31;4122;-76
2023/04/22 00:36:48;;;;;;;319.70;138.37;;;;;;;14.04;98.95;99305.94;311606;31;908;-76
2023/04/22 00:36:59;;;;;;;319.60;137.77;;;;;;;13.99;98.87;99303.59;310492;31;1229;-78
2023/04/22 00:37:09;;;;;;;322.70;137.50;;;;;;;13.97;99.26;99305.47;309983;31;3523;-76
2023/04/22 00:37:19;;;;;;;323.88;137.15;;;;;;;13.94;99.57;99305.66;306617;32;3273;-76
2023/04/22 00:37:30;;;;;;;319.87;135.20;;;;;;;14.00;99.24;99301.81;305196;32;1363;-76
2023/04/22 00:37:40;;;;;;;315.90;131.10;;;;;;;13.99;99.00;99300.13;305955;32;4359;-76
2023/04/22 00:37:51;;;;;;;313.77;130.30;;;;;;;13.99;99.29;99297.50;306454;32;5043;-76
2023/04/22 00:38:01;;;;;;;315.73;132.87;;;;;;;13.99;99.37;99300.13;305178;32;1372;-76
2023/04/22 00:38:11;;;;;;;321.88;137.07;;;;;;;14.01;99.28;99306.13;307146;32;5473;-76
2023/04/22 00:38:22;;;;;;;324.77;137.97;;;;;;;14.03;99.52;99306.03;305178;32;6663;-76
2023/04/22 00:38:32;;;;;;;320.55;135.15;;;;;;;14.04;99.17;99303.31;303313;32;813;-76
2023/04/22 00:38:46;;;;;;;319.57;136.20;;;;;;;14.04;99.15;99308.59;298167;32;6712;-76
2023/04/22 00:38:57;;;;;;;318.25;133.55;;;;;;;14.07;98.92;99307.56;298583;32;5340;-76
2023/04/22 00:39:08;;;;;;;321.35;134.50;;;;;;;14.06;98.76;99306.72;302168;32;5646;-76
2023/04/22 00:39:18;;;;;;;317.60;134.37;;;;;;;14.08;98.64;99310.09;303588;32;1715;-76
2023/04/22 00:39:28;;;;;;;319.80;138.05;;;;;;;14.07;98.71;99305.78;298176;32;4897;-76
2023/04/22 00:39:39;;;;;;;317.08;138.23;;;;;;;14.08;98.97;99304.84;294010;33;4852;-76
2023/04/22 00:39:49;;;;;;;316.27;136.27;;;;;;;14.08;99.13;99304.84;291964;33;5916;-76
2023/04/22 00:40:00;;;;;;;317.50;136.90;;;;;;;14.09;98.95;99301.25;293112;33;677;-76
2023/04/22 00:40:10;;;;;;;323.80;141.17;;;;;;;14.08;98.71;99304.84;290147;33;6590;-76
2023/04/22 00:40:21;;;;;;;327.20;143.02;;;;;;;14.09;98.65;99303.91;288670;33;8039;-76
2023/04/22 00:40:31;;;;;;;325.90;141.87;;;;;;;14.10;98.81;99302.97;288183;34;1216;-76
2023/04/22 00:40:42;;;;;;;320.20;138.07;;;;;;;14.10;98.83;99310.00;288481;33;9390;-76
2023/04/22 00:40:52;;;;;;;319.33;139.17;;;;;;;14.10;98.70;99304.75;287826;34;9857;-76
2023/04/22 00:41:03;;;;;;;319.33;140.00;;;;;;;14.13;98.88;99307.19;287099;34;1333;-76
2023/04/22 00:41:13;;;;;;;320.77;141.37;;;;;;;14.10;98.99;99296.84;285437;34;7813;-76
2023/04/22 00:41:24;;;;;;;320.02;139.98;;;;;;;14.13;98.64;99302.78;285262;34;7841;-76
2023/04/22 00:41:35;;;;;;;318.98;138.63;;;;;;;14.10;98.50;99297.69;284478;34;6746;-76
2023/04/22 00:41:45;;;;;;;320.67;139.07;;;;;;;14.10;98.56;99297.69;288220;34;1709;-76
2023/04/22 00:41:56;;;;;;;320.27;138.60;;;;;;;14.13;98.46;99305.41;283619;34;6599;-76
2023/04/22 00:43:48;;;;;;;308.05;126.87;;;;;;;14.20;97.91;99308.53;2502135;27;20284;-77
2023/04/22 00:43:59;;;;;;;315.43;131.33;;;;;;;14.18;97.79;99300.72;351570;28;1490;-77
2023/04/22 00:44:10;;;;;;;317.08;135.50;;;;;;;14.18;97.70;99305.97;348693;28;1316;-77
2023/04/22 00:44:20;;;;;;;318.95;141.07;;;;;;;14.19;97.45;99307.66;347249;28;1411;-76
2023/04/22 00:44:31;;;;;;;323.97;144.10;;;;;;;14.18;97.74;99305.97;348366;28;1528;-76
2023/04/22 00:44:41;;;;;;;321.55;139.90;;;;;;;14.18;97.79;99311.25;347450;28;1684;-76
2023/04/22 00:44:51;;;;;;;317.23;134.43;;;;;;;14.18;97.76;99300.72;347461;28;1121;-77
2023/04/22 00:45:02;;;;;;;315.75;133.77;;;;;;;14.19;97.37;99305.03;347371;28;1305;-76
2023/04/22 00:45:14;;;;;;;317.77;136.83;;;;;;;14.21;97.53;99304.94;347205;28;1251;-76
2023/04/22 00:45:25;;;;;;;321.25;135.98;;;;;;;14.21;97.53;99305.78;346383;28;774;-76
2023/04/22 00:45:35;;;;;;;323.20;135.13;;;;;;;14.19;97.11;99298.94;347510;28;1313;-76
2023/04/22 00:45:46;;;;;;;323.08;134.27;;;;;;;14.19;97.36;99302.41;347524;28;884;-76
2023/04/22 00:45:57;;;;;;;316.83;134.30;;;;;;;14.20;97.48;99306.72;348783;28;901;-76
2023/04/22 00:46:08;;;;;;;316.10;134.27;;;;;;;14.19;97.47;99307.66;348633;28;869;-75
2023/04/22 00:46:18;;;;;;;317.25;135.60;;;;;;;14.21;97.57;99313.69;348883;28;1257;-77
2023/04/22 00:46:29;;;;;;;317.05;136.70;;;;;;;14.18;97.50;99308.59;348886;28;1304;-77
2023/04/22 00:46:39;;;;;;;318.27;138.43;;;;;;;14.19;97.48;99307.66;348993;28;1014;-77
2023/04/22 00:46:50;;;;;;;316.40;138.73;;;;;;;14.16;97.21;99299.97;347697;28;1218;-77
2023/04/22 00:47:00;;;;;;;316.37;139.27;;;;;;;14.17;97.63;99308.69;347503;28;1205;-77
2023/04/22 00:47:11;;;;;;;316.75;139.48;;;;;;;14.16;97.33;99313.13;347211;28;1301;-79
2023/04/22 00:47:25;;;;;;;316.90;138.52;;;;;;;14.12;97.55;99314.25;347595;28;880;-79
2023/04/22 00:47:35;;;;;;;321.58;140.18;;;;;;;14.06;97.15;99301.44;347353;28;1369;-77
2023/04/22 00:47:46;;;;;;;325.20;140.13;;;;;;;14.07;97.70;99311.03;347405;28;1196;-77
2023/04/22 00:47:56;;;;;;;326.05;138.63;;;;;;;14.05;97.53;99310.28;346160;28;1199;-77
2023/04/22 00:48:07;;;;;;;321.90;136.20;;;;;;;14.05;97.57;99305.00;346045;28;1413;-77
2023/04/22 00:48:17;;;;;;;318.58;136.98;;;;;;;14.07;97.57;99307.56;345815;28;1394;-78
2023/04/22 00:48:28;;;;;;;316.77;136.80;;;;;;;14.07;97.32;99312.81;348313;28;876;-78
2023/04/22 00:48:39;;;;;;;320.13;135.73;;;;;;;14.06;97.25;99311.97;348970;28;896;-78
2023/04/22 00:48:49;;;;;;;318.60;133.93;;;;;;;14.07;97.26;99308.41;343433;28;1545;-78
2023/04/22 00:49:00;;;;;;;321.47;135.47;;;;;;;14.05;97.11;99306.81;346176;28;1197;-78
2023/04/22 00:49:10;;;;;;;315.52;133.63;;;;;;;14.08;97.25;99312.72;347574;28;1318;-78
2023/04/22 00:49:20;;;;;;;316.97;133.87;;;;;;;14.08;97.04;99315.34;344291;28;1226;-76
2023/04/22 00:49:31;;;;;;;316.20;135.00;;;;;;;14.07;96.76;99313.66;343422;28;1232;-76
2023/04/22 00:49:41;;;;;;;324.13;139.87;;;;;;;14.09;96.83;99316.22;344667;28;1156;-76
2023/04/22 00:49:52;;;;;;;325.73;140.10;;;;;;;14.11;96.64;99320.44;340778;29;1451;-76
2023/04/22 00:50:03;;;;;;;329.75;141.23;;;;;;;14.08;96.69;99309.25;339402;29;1664;-76
2023/04/22 00:50:14;;;;;;;323.10;137.88;;;;;;;14.11;96.72;99311.69;342970;28;1273;-76
2023/04/22 00:50:25;;;;;;;321.13;137.43;;;;;;;14.11;96.73;99309.91;342662;28;1805;-77
2023/04/22 00:50:35;;;;;;;317.73;135.07;;;;;;;14.10;96.72;99318.75;341964;28;1382;-77
2023/04/22 00:50:45;;;;;;;321.77;139.37;;;;;;;14.11;96.57;99314.34;340525;29;882;-78
2023/04/22 00:50:56;;;;;;;322.77;139.10;;;;;;;14.09;96.53;99306.53;342204;28;894;-77
2023/04/22 00:51:06;;;;;;;323.00;137.57;;;;;;;14.12;96.78;99311.59;340890;29;739;-76
2023/04/22 00:51:17;;;;;;;320.90;135.50;;;;;;;14.12;96.51;99311.59;342095;28;859;-76
2023/04/22 00:51:27;;;;;;;320.97;135.90;;;;;;;14.11;96.67;99315.19;341649;28;909;-76
2023/04/22 00:51:37;;;;;;;320.63;137.93;;;;;;;14.09;96.58;99314.41;337971;29;1298;-75
2023/04/22 00:51:48;;;;;;;323.80;139.83;;;;;;;14.09;96.70;99311.78;336817;29;1159;-75
2023/04/22 00:51:58;;;;;;;326.30;140.77;;;;;;;14.09;96.65;99316.22;339101;28;1379;-76
2023/04/22 00:52:09;;;;;;;327.97;141.53;;;;;;;14.07;97.21;99311.03;340865;28;1447;-76